createdAt,value
2022-09-14T00:01:44.510Z,71.37
2022-09-14T00:04:19.340Z,71.69
2022-09-14T00:06:49.870Z,71.08
2022-09-14T00:09:21.675Z,70.89
2022-09-14T00:11:51.915Z,70.63
2022-09-14T00:14:22.546Z,70.99
2022-09-14T00:16:52.360Z,70.49
2022-09-14T00:19:26.596Z,69.90
2022-09-14T00:21:58.258Z,69.98
2022-09-14T00:24:30.868Z,69.99
2022-09-14T00:27:00.934Z,69.99
2022-09-14T00:29:30.604Z,70.02
2022-09-14T00:32:00.397Z,70.08
2022-09-14T00:34:33.016Z,70.13
2022-09-14T00:37:02.656Z,69.98
2022-09-14T00:39:32.404Z,69.82
2022-09-14T00:42:02.228Z,70.03
2022-09-14T00:45:03.776Z,69.96
2022-09-14T00:47:35.010Z,69.60
2022-09-14T00:50:09.218Z,69.21
2022-09-14T00:52:43.074Z,69.53
2022-09-14T00:55:15.745Z,69.50
2022-09-14T00:57:49.645Z,69.66
2022-09-14T01:00:23.478Z,69.80
2022-09-14T01:02:53.162Z,70.09
2022-09-14T01:05:30.753Z,70.12
2022-09-14T01:08:14.675Z,70.53
2022-09-14T01:11:01.125Z,69.90
2022-09-14T01:13:39.907Z,69.84
2022-09-14T01:16:20.410Z,70.01
2022-09-14T01:18:54.563Z,70.15
2022-09-14T01:21:29.534Z,70.27
2022-09-14T01:24:09.022Z,70.64
2022-09-14T01:27:11.480Z,71.45
2022-09-14T01:29:48.452Z,71.30
2022-09-14T01:32:23.032Z,71.11
2022-09-14T01:35:00.080Z,71.36
2022-09-14T01:37:34.373Z,72.39
2022-09-14T01:40:12.998Z,75.36
2022-09-14T01:42:45.681Z,81.34
2022-09-14T01:45:21.818Z,85.24
2022-09-14T01:47:55.904Z,90.91
2022-09-14T01:50:34.074Z,94.40
2022-09-14T01:53:10.438Z,96.26
2022-09-14T01:55:46.544Z,98.71
2022-09-14T01:58:25.964Z,99.71
2022-09-14T02:01:00.548Z,99.04
2022-09-14T02:03:34.251Z,100.00
2022-09-14T02:06:11.872Z,100.00
2022-09-14T02:08:41.901Z,100.00
2022-09-14T02:11:11.649Z,100.00
2022-09-14T02:13:41.356Z,100.00
2022-09-14T02:16:13.854Z,100.00
2022-09-14T02:18:43.770Z,100.00
2022-09-14T02:21:19.078Z,100.00
2022-09-14T02:23:49.769Z,100.00
2022-09-14T02:26:21.731Z,100.00
2022-09-14T02:28:55.966Z,100.00
2022-09-14T02:31:36.826Z,100.00
2022-09-14T02:34:13.450Z,100.00
2022-09-14T02:36:51.584Z,100.00
2022-09-14T02:39:30.176Z,100.00
2022-09-14T02:42:06.809Z,100.00
2022-09-14T02:44:44.376Z,100.00
2022-09-14T02:47:22.024Z,100.00
2022-09-14T02:49:59.959Z,100.00
2022-09-14T02:52:36.373Z,100.00
2022-09-14T02:55:11.503Z,100.00
2022-09-14T02:58:02.595Z,100.00
2022-09-14T03:00:35.266Z,100.00
2022-09-14T03:03:08.537Z,100.00
2022-09-14T03:05:38.678Z,100.00
2022-09-14T03:08:10.359Z,100.00
2022-09-14T03:10:40.877Z,100.00
2022-09-14T03:13:10.523Z,100.00
2022-09-14T03:15:40.349Z,100.00
2022-09-14T03:18:14.573Z,100.00
2022-09-14T03:20:45.004Z,100.00
2022-09-14T03:23:16.045Z,100.00
2022-09-14T03:25:47.326Z,100.00
2022-09-14T03:28:17.114Z,100.00
2022-09-14T03:30:46.781Z,100.00
2022-09-14T03:33:20.067Z,100.00
2022-09-14T03:35:49.766Z,100.00
2022-09-14T03:38:19.602Z,100.00
2022-09-14T03:40:49.321Z,100.00
2022-09-14T03:43:19.020Z,100.00
2022-09-14T03:45:48.700Z,100.00
2022-09-14T03:48:21.006Z,100.00
2022-09-14T03:50:50.646Z,100.00
2022-09-14T03:53:20.376Z,100.00
2022-09-14T03:55:50.157Z,100.00
2022-09-14T03:58:19.814Z,100.00
2022-09-14T04:00:49.514Z,100.00
2022-09-14T04:03:22.056Z,100.00
2022-09-14T04:05:58.199Z,100.00
2022-09-14T04:08:27.916Z,100.00
2022-09-14T04:10:57.593Z,100.00
2022-09-14T04:13:27.319Z,100.00
2022-09-14T04:16:01.100Z,100.00
2022-09-14T04:18:33.555Z,100.00
2022-09-14T04:21:08.232Z,100.00
2022-09-14T04:24:03.057Z,100.00
2022-09-14T04:26:31.471Z,100.00
2022-09-14T04:29:01.728Z,100.00
2022-09-14T04:31:33.005Z,100.00
2022-09-14T04:34:05.321Z,100.00
2022-09-14T04:36:35.216Z,100.00
2022-09-14T04:39:07.172Z,100.00
2022-09-14T04:41:36.798Z,100.00
2022-09-14T04:44:06.406Z,100.00
2022-09-14T04:46:45.114Z,100.00
2022-09-14T04:49:21.632Z,100.00
2022-09-14T04:51:51.685Z,100.00
2022-09-14T04:54:22.229Z,100.00
2022-09-14T04:56:52.034Z,100.00
2022-09-14T04:59:21.757Z,100.00
2022-09-14T05:01:51.678Z,100.00
2022-09-14T05:04:24.035Z,100.00
2022-09-14T05:06:53.940Z,100.00
2022-09-14T05:09:23.710Z,100.00
2022-09-14T05:11:53.373Z,100.00
2022-09-14T05:14:23.081Z,100.00
2022-09-14T05:16:52.825Z,100.00
2022-09-14T05:19:25.065Z,100.00
2022-09-14T05:21:54.741Z,100.00
2022-09-14T05:24:24.518Z,100.00
2022-09-14T05:26:59.568Z,100.00
2022-09-14T05:29:32.089Z,100.00
2022-09-14T05:32:01.790Z,100.00
2022-09-14T05:34:34.077Z,100.00
2022-09-14T05:37:03.799Z,100.00
2022-09-14T05:39:33.485Z,100.00
2022-09-14T05:42:03.120Z,100.00
2022-09-14T05:44:32.821Z,100.00
2022-09-14T05:47:02.477Z,100.00
2022-09-14T05:49:34.961Z,100.00
2022-09-14T05:52:05.358Z,100.00
2022-09-14T05:54:35.014Z,100.00
2022-09-14T05:57:04.720Z,100.00
2022-09-14T05:59:34.423Z,100.00
2022-09-14T06:02:04.192Z,100.00
2022-09-14T06:04:36.404Z,100.00
2022-09-14T06:07:18.506Z,100.00
2022-09-14T06:09:48.745Z,100.00
2022-09-14T06:12:18.824Z,100.00
2022-09-14T06:14:48.440Z,100.00
2022-09-14T06:17:18.108Z,100.00
2022-09-14T06:19:50.306Z,100.00
2022-09-14T06:22:20.114Z,100.00
2022-09-14T06:24:49.666Z,100.00
2022-09-14T06:27:19.485Z,100.00
2022-09-14T06:29:52.167Z,100.00
2022-09-14T06:32:23.328Z,100.00
2022-09-14T06:34:55.543Z,100.00
2022-09-14T06:37:25.208Z,100.00
2022-09-14T06:39:54.842Z,100.00
2022-09-14T06:42:24.666Z,100.00
2022-09-14T06:44:54.314Z,100.00
2022-09-14T06:47:23.995Z,100.00
2022-09-14T06:49:56.237Z,100.00
2022-09-14T06:52:26.706Z,100.00
2022-09-14T06:54:58.338Z,100.00
2022-09-14T06:57:28.046Z,100.00
2022-09-14T06:59:57.683Z,100.00
2022-09-14T07:02:27.349Z,100.00
2022-09-14T07:05:00.211Z,100.00
2022-09-14T07:07:29.960Z,100.00
2022-09-14T07:09:59.619Z,100.00
2022-09-14T07:12:30.477Z,100.00
2022-09-14T07:15:00.147Z,100.00
2022-09-14T07:17:29.854Z,100.00
2022-09-14T07:20:02.236Z,100.00
2022-09-14T07:22:32.055Z,100.00
2022-09-14T07:25:01.714Z,100.00
2022-09-14T07:27:31.458Z,100.00
2022-09-14T07:30:01.102Z,100.00
2022-09-14T07:32:30.703Z,100.00
2022-09-14T07:35:02.923Z,100.00
2022-09-14T07:37:32.849Z,100.00
2022-09-14T07:40:02.576Z,100.00
2022-09-14T07:42:32.288Z,100.00
2022-09-14T07:45:01.959Z,100.00
2022-09-14T07:47:31.562Z,100.00
2022-09-14T07:50:03.825Z,100.00
2022-09-14T07:52:37.998Z,100.00
2022-09-14T07:55:12.524Z,100.00
2022-09-14T07:57:55.672Z,100.00
2022-09-14T08:00:26.490Z,100.00
2022-09-14T08:02:58.074Z,100.00
2022-09-14T08:05:30.338Z,100.00
2022-09-14T08:07:59.977Z,100.00
2022-09-14T08:10:29.739Z,100.00
2022-09-14T08:12:59.469Z,100.00
2022-09-14T08:15:29.254Z,100.00
2022-09-14T08:17:58.907Z,100.00
2022-09-14T08:20:31.079Z,100.00
2022-09-14T08:23:02.239Z,100.00
2022-09-14T08:25:31.880Z,100.00
2022-09-14T08:28:01.524Z,100.00
2022-09-14T08:30:31.147Z,100.00
2022-09-14T08:33:02.014Z,100.00
2022-09-14T08:35:56.355Z,100.00
2022-09-14T08:38:24.471Z,100.00
2022-09-14T08:40:54.363Z,100.00
2022-09-14T08:43:27.344Z,100.00
2022-09-14T08:46:06.298Z,100.00
2022-09-14T08:48:39.851Z,100.00
2022-09-14T08:51:12.267Z,100.00
2022-09-14T08:53:44.258Z,100.00
2022-09-14T08:56:18.402Z,100.00
2022-09-14T08:59:10.818Z,100.00
2022-09-14T09:01:48.866Z,100.00
2022-09-14T09:04:37.671Z,100.00
2022-09-14T09:07:18.019Z,100.00
2022-09-14T09:09:49.932Z,100.00
2022-09-14T09:12:24.243Z,95.81
2022-09-14T09:14:57.393Z,100.00
2022-09-14T09:17:33.925Z,98.35
2022-09-14T09:20:09.736Z,95.12
2022-09-14T09:22:46.034Z,85.28
2022-09-14T09:25:23.381Z,88.12
2022-09-14T09:27:53.551Z,82.66
2022-09-14T09:30:23.301Z,83.86
2022-09-14T09:32:53.602Z,85.95
2022-09-14T09:35:26.952Z,81.86
2022-09-14T09:37:59.180Z,84.50
2022-09-14T09:40:34.615Z,81.69
2022-09-14T09:43:09.509Z,79.47
2022-09-14T09:45:54.845Z,81.40
2022-09-14T09:48:28.932Z,81.46
2022-09-14T09:51:09.666Z,80.26
2022-09-14T09:53:50.123Z,79.69
2022-09-14T09:56:23.038Z,80.62
2022-09-14T09:58:52.817Z,80.19
2022-09-14T10:01:25.780Z,82.47
2022-09-14T10:04:05.404Z,81.66
2022-09-14T10:06:35.516Z,76.02
2022-09-14T10:09:15.928Z,72.87
2022-09-14T10:11:46.041Z,75.67
2022-09-14T10:14:26.580Z,76.97
2022-09-14T10:16:56.679Z,74.50
2022-09-14T10:19:30.661Z,74.60
2022-09-14T10:22:20.931Z,79.00
2022-09-14T10:25:02.012Z,75.19
2022-09-14T10:27:41.487Z,73.80
2022-09-14T10:30:18.452Z,74.42
2022-09-14T10:32:55.395Z,73.03
2022-09-14T10:35:30.473Z,72.77
2022-09-14T10:38:16.093Z,74.29
2022-09-14T10:40:56.216Z,70.96
2022-09-14T10:43:39.007Z,72.82
2022-09-14T10:46:15.274Z,71.45
2022-09-14T10:48:55.342Z,73.55
2022-09-14T10:51:43.043Z,74.84
2022-09-14T10:54:29.509Z,73.18
2022-09-14T10:57:20.347Z,70.82
2022-09-14T10:59:56.255Z,70.53
2022-09-14T11:02:43.374Z,70.47
2022-09-14T11:05:18.670Z,70.95
2022-09-14T11:08:03.357Z,68.01
2022-09-14T11:10:39.360Z,67.50
2022-09-14T11:13:28.188Z,65.58
2022-09-14T11:16:07.482Z,65.04
2022-09-14T11:18:45.968Z,66.70
2022-09-14T11:21:24.014Z,65.96
2022-09-14T11:23:58.623Z,65.03
2022-09-14T11:26:33.256Z,65.65
2022-09-14T11:29:21.847Z,62.20
2022-09-14T11:32:19.261Z,63.78
2022-09-14T11:34:54.947Z,63.21
2022-09-14T11:37:33.553Z,62.63
2022-09-14T11:40:11.215Z,60.25
2022-09-14T11:42:47.410Z,58.48
2022-09-14T11:45:25.442Z,60.44
2022-09-14T11:48:02.881Z,58.93
2022-09-14T11:50:35.353Z,59.99
2022-09-14T11:53:14.412Z,61.40
2022-09-14T11:55:48.791Z,60.41
2022-09-14T11:58:23.703Z,59.63
2022-09-14T12:01:32.052Z,59.76
2022-09-14T12:04:20.404Z,60.89
2022-09-14T12:06:58.457Z,61.76
2022-09-14T12:09:41.667Z,61.68
2022-09-14T12:12:40.042Z,62.58
2022-09-14T12:15:37.005Z,63.61
2022-09-14T12:18:28.005Z,63.25
2022-09-14T12:21:09.424Z,63.98
2022-09-14T12:23:51.937Z,63.13
2022-09-14T12:26:39.644Z,64.17
2022-09-14T12:29:30.186Z,64.10
2022-09-14T12:32:26.788Z,64.30
2022-09-14T12:35:26.424Z,63.93
2022-09-14T12:37:58.633Z,64.25
2022-09-14T12:40:48.986Z,62.94
2022-09-14T12:43:49.057Z,65.32
2022-09-14T12:46:36.008Z,64.85
2022-09-14T12:49:17.459Z,65.20
2022-09-14T12:51:51.397Z,65.75
2022-09-14T12:54:29.656Z,65.82
2022-09-14T12:57:09.025Z,68.54
2022-09-14T12:59:47.940Z,69.98
2022-09-14T13:02:48.356Z,75.96
2022-09-14T13:05:20.665Z,79.21
2022-09-14T13:07:50.314Z,81.56
2022-09-14T13:10:28.848Z,85.50
2022-09-14T13:12:59.137Z,84.28
2022-09-14T13:15:32.860Z,84.79
2022-09-14T13:18:04.175Z,86.79
2022-09-14T13:20:36.059Z,88.65
2022-09-14T13:23:06.239Z,91.51
2022-09-14T13:25:40.731Z,91.88
2022-09-14T13:28:17.879Z,91.45
2022-09-14T13:30:57.542Z,91.01
2022-09-14T13:33:27.903Z,94.23
2022-09-14T13:35:59.920Z,93.05
2022-09-14T13:38:33.598Z,94.85
2022-09-14T13:41:13.372Z,94.36
2022-09-14T13:43:44.777Z,95.75
2022-09-14T13:46:19.682Z,95.60
2022-09-14T13:48:50.434Z,97.81
2022-09-14T13:51:25.967Z,97.23
2022-09-14T13:53:57.507Z,97.64
2022-09-14T13:56:32.711Z,97.37
2022-09-14T13:59:21.822Z,97.70
2022-09-14T14:01:59.039Z,94.58
2022-09-14T14:04:37.377Z,94.73
2022-09-14T14:07:19.599Z,95.88
2022-09-14T14:09:52.505Z,95.76
2022-09-14T14:12:30.455Z,95.83
2022-09-14T14:15:01.829Z,95.92
2022-09-14T14:17:37.441Z,97.36
2022-09-14T14:20:33.188Z,97.26
2022-09-14T14:23:16.797Z,97.81
2022-09-14T14:25:48.991Z,98.10
2022-09-14T14:28:25.578Z,96.74
2022-09-14T14:30:56.763Z,99.09
2022-09-14T14:33:26.591Z,97.04
2022-09-14T14:35:57.999Z,97.25
2022-09-14T14:38:28.107Z,97.24
2022-09-14T14:40:58.701Z,97.57
2022-09-14T14:43:31.445Z,97.02
2022-09-14T14:46:02.862Z,94.04
2022-09-14T14:48:32.767Z,93.64
2022-09-14T14:51:02.624Z,98.00
2022-09-14T14:53:32.251Z,96.96
2022-09-14T14:56:01.893Z,96.24
2022-09-14T14:58:36.400Z,94.46
2022-09-14T15:01:06.308Z,95.82
2022-09-14T15:03:36.061Z,94.34
2022-09-14T15:06:15.171Z,94.26
2022-09-14T15:08:45.401Z,94.99
2022-09-14T15:11:19.391Z,94.28
2022-09-14T15:13:52.281Z,94.88
2022-09-14T15:16:22.005Z,98.18
2022-09-14T15:18:51.858Z,94.21
2022-09-14T15:21:21.511Z,94.17
2022-09-14T15:23:51.698Z,94.48
2022-09-14T15:26:21.321Z,97.55
2022-09-14T15:28:53.603Z,96.54
2022-09-14T15:31:23.608Z,96.40
2022-09-14T15:33:53.309Z,94.48
2022-09-14T15:36:38.631Z,93.18
2022-09-14T15:39:09.644Z,94.22
2022-09-14T15:41:39.246Z,94.42
2022-09-14T15:44:12.068Z,92.37
2022-09-14T15:46:43.983Z,91.74
2022-09-14T15:49:18.117Z,91.56
2022-09-14T15:51:52.904Z,92.22
2022-09-14T15:54:25.902Z,92.16
2022-09-14T15:56:59.462Z,90.87
2022-09-14T15:59:32.281Z,90.59
2022-09-14T16:02:01.977Z,92.64
2022-09-14T16:04:31.836Z,92.09
2022-09-14T16:07:02.103Z,92.65
2022-09-14T16:09:32.010Z,91.57
2022-09-14T16:12:02.134Z,89.93
2022-09-14T16:14:34.399Z,89.36
2022-09-14T16:17:04.536Z,88.76
2022-09-14T16:19:34.915Z,87.90
2022-09-14T16:22:04.702Z,89.13
2022-09-14T16:24:34.380Z,87.30
2022-09-14T16:27:04.066Z,89.38
2022-09-14T16:29:36.220Z,88.55
2022-09-14T16:32:06.073Z,90.25
2022-09-14T16:34:35.699Z,92.82
2022-09-14T16:37:05.363Z,91.20
2022-09-14T16:39:35.219Z,94.40
2022-09-14T16:42:05.467Z,89.94
2022-09-14T16:44:37.728Z,92.87
2022-09-14T16:47:07.507Z,91.61
2022-09-14T16:49:37.282Z,91.75
2022-09-14T16:52:06.962Z,91.90
2022-09-14T16:54:36.603Z,90.72
2022-09-14T16:57:06.562Z,93.03
2022-09-14T16:59:39.057Z,91.50
2022-09-14T17:02:09.227Z,94.94
2022-09-14T17:04:38.990Z,95.56
2022-09-14T17:07:08.708Z,93.72
2022-09-14T17:09:38.415Z,92.67
2022-09-14T17:12:08.708Z,92.91
2022-09-14T17:14:40.952Z,92.79
2022-09-14T17:17:10.592Z,93.36
2022-09-14T17:19:43.539Z,93.79
2022-09-14T17:22:14.151Z,93.36
2022-09-14T17:24:43.780Z,94.84
2022-09-14T17:27:13.379Z,94.84
2022-09-14T17:29:46.733Z,93.56
2022-09-14T17:32:16.366Z,93.94
2022-09-14T17:34:46.967Z,93.64
2022-09-14T17:37:16.595Z,94.37
2022-09-14T17:39:46.471Z,94.78
2022-09-14T17:42:16.177Z,94.12
2022-09-14T17:44:48.378Z,95.60
2022-09-14T17:47:18.063Z,94.64
2022-09-14T17:49:47.662Z,93.94
2022-09-14T17:52:17.293Z,95.28
2022-09-14T17:54:46.919Z,97.49
2022-09-14T17:57:16.575Z,95.73
2022-09-14T17:59:49.438Z,95.03
2022-09-14T18:02:19.051Z,95.86
2022-09-14T18:04:49.775Z,95.55
2022-09-14T18:07:19.387Z,96.76
2022-09-14T18:09:49.263Z,95.76
2022-09-14T18:12:20.146Z,96.81
2022-09-14T18:14:52.885Z,95.64
2022-09-14T18:17:22.503Z,96.85
2022-09-14T18:19:54.441Z,96.03
2022-09-14T18:22:24.118Z,96.38
2022-09-14T18:24:53.737Z,95.63
2022-09-14T18:27:23.318Z,96.80
2022-09-14T18:29:56.009Z,97.19
2022-09-14T18:32:25.654Z,96.61
2022-09-14T18:34:55.309Z,95.09
2022-09-14T18:37:25.702Z,95.45
2022-09-14T18:39:55.513Z,94.41
2022-09-14T18:42:25.260Z,94.36
2022-09-14T18:44:57.541Z,93.30
2022-09-14T18:47:27.340Z,92.99
2022-09-14T18:49:57.094Z,91.94
2022-09-14T18:52:26.762Z,93.72
2022-09-14T18:54:56.442Z,93.68
2022-09-14T18:57:26.281Z,94.11
2022-09-14T18:59:58.593Z,93.53
2022-09-14T19:02:28.384Z,94.72
2022-09-14T19:04:58.027Z,93.91
2022-09-14T19:07:28.283Z,93.24
2022-09-14T19:09:58.834Z,93.56
2022-09-14T19:12:28.614Z,93.79
2022-09-14T19:15:00.792Z,93.51
2022-09-14T19:17:31.263Z,94.14
2022-09-14T19:20:01.057Z,95.42
2022-09-14T19:22:31.999Z,94.64
2022-09-14T19:25:01.687Z,94.01
2022-09-14T19:27:31.440Z,93.84
2022-09-14T19:30:03.940Z,94.18
2022-09-14T19:32:33.626Z,94.15
2022-09-14T19:35:03.249Z,93.96
2022-09-14T19:37:32.913Z,93.65
2022-09-14T19:40:02.592Z,95.28
2022-09-14T19:42:32.319Z,96.12
2022-09-14T19:45:04.575Z,94.21
2022-09-14T19:47:34.350Z,95.36
2022-09-14T19:50:04.021Z,94.36
2022-09-14T19:52:33.774Z,94.59
2022-09-14T19:55:03.529Z,95.68
2022-09-14T19:57:34.276Z,95.83
2022-09-14T20:00:09.307Z,95.68
2022-09-14T20:02:39.072Z,93.88
2022-09-14T20:05:10.796Z,93.54
2022-09-14T20:07:40.441Z,93.99
2022-09-14T20:10:12.378Z,93.90
2022-09-14T20:12:42.073Z,93.77
2022-09-14T20:15:15.186Z,95.33
2022-09-14T20:17:44.861Z,94.51
2022-09-14T20:20:15.920Z,94.27
2022-09-14T20:22:45.814Z,94.37
2022-09-14T20:25:15.488Z,93.83
2022-09-14T20:27:45.189Z,93.82
2022-09-14T20:30:18.741Z,94.89
2022-09-14T20:32:48.400Z,95.35
2022-09-14T20:35:18.582Z,96.98
2022-09-14T20:37:48.319Z,95.79
2022-09-14T20:40:18.077Z,95.12
2022-09-14T20:42:47.680Z,95.54
2022-09-14T20:45:20.277Z,96.39
2022-09-14T20:47:49.877Z,98.09
2022-09-14T20:50:19.731Z,99.94
2022-09-14T20:52:49.336Z,99.58
2022-09-14T20:55:18.973Z,99.50
2022-09-14T20:57:48.526Z,100.00
2022-09-14T21:00:20.994Z,99.45
2022-09-14T21:02:53.978Z,99.11
2022-09-14T21:05:23.598Z,96.90
2022-09-14T21:07:56.319Z,95.90
2022-09-14T21:10:29.337Z,95.03
2022-09-14T21:12:59.299Z,96.89
2022-09-14T21:15:31.565Z,98.83
2022-09-14T21:18:01.222Z,100.00
2022-09-14T21:20:31.530Z,99.72
2022-09-14T21:23:01.204Z,100.00
2022-09-14T21:25:30.910Z,99.61
2022-09-14T21:28:00.798Z,100.00
2022-09-14T21:30:33.919Z,100.00
2022-09-14T21:33:03.567Z,100.00
2022-09-14T21:35:33.795Z,100.00
2022-09-14T21:38:03.712Z,100.00
2022-09-14T21:40:33.471Z,100.00
2022-09-14T21:43:03.127Z,100.00
2022-09-14T21:45:35.377Z,100.00
2022-09-14T21:48:05.434Z,98.54
2022-09-14T21:50:35.153Z,100.00
2022-09-14T21:53:04.842Z,100.00
2022-09-14T21:55:34.879Z,99.03
2022-09-14T21:58:04.653Z,96.69
2022-09-14T22:00:38.413Z,96.71
2022-09-14T22:03:11.454Z,96.36
2022-09-14T22:05:41.507Z,97.26
2022-09-14T22:08:11.224Z,100.00
2022-09-14T22:10:41.596Z,100.00
2022-09-14T22:13:11.283Z,100.00
2022-09-14T22:15:43.782Z,100.00
2022-09-14T22:18:14.335Z,100.00
2022-09-14T22:20:44.540Z,100.00
2022-09-14T22:23:14.304Z,100.00
2022-09-14T22:25:44.415Z,100.00
2022-09-14T22:28:14.759Z,100.00
2022-09-14T22:30:49.921Z,100.00
2022-09-14T22:33:19.672Z,100.00
2022-09-14T22:35:55.039Z,100.00
2022-09-14T22:38:26.220Z,100.00
2022-09-14T22:40:59.284Z,100.00
2022-09-14T22:43:29.949Z,100.00
2022-09-14T22:46:02.750Z,100.00
2022-09-14T22:48:32.559Z,100.00
2022-09-14T22:51:03.763Z,100.00
2022-09-14T22:53:34.138Z,100.00
2022-09-14T22:56:10.923Z,100.00
2022-09-14T22:58:41.041Z,100.00
2022-09-14T23:01:16.446Z,100.00
2022-09-14T23:03:46.586Z,100.00
2022-09-14T23:06:16.681Z,100.00
2022-09-14T23:08:47.381Z,100.00
2022-09-14T23:11:17.018Z,100.00
2022-09-14T23:13:46.622Z,100.00
2022-09-14T23:16:21.137Z,100.00
2022-09-14T23:18:53.582Z,100.00
2022-09-14T23:21:23.716Z,100.00
2022-09-14T23:23:54.924Z,100.00
2022-09-14T23:26:25.599Z,100.00
2022-09-14T23:28:56.478Z,100.00
2022-09-14T23:31:29.328Z,100.00
2022-09-14T23:34:01.121Z,100.00
2022-09-14T23:36:30.940Z,100.00
2022-09-14T23:39:00.933Z,100.00
2022-09-14T23:41:31.333Z,100.00
2022-09-14T23:44:00.945Z,100.00
2022-09-14T23:46:33.230Z,100.00
2022-09-14T23:49:03.244Z,100.00
2022-09-14T23:51:33.313Z,100.00
2022-09-14T23:54:02.906Z,100.00
2022-09-14T23:56:32.548Z,100.00
2022-09-14T23:59:02.186Z,100.00
